Time;durP1;ratioP1;P1;durP2;ratioP2;P2;SDS_P1;SDS_P2;PMS_P1;PMS_P2;Temp;Humidity;BMP_temperature;BMP_pressure;BME280_temperature;BME280_humidity;BME280_pressure;Samples;Min_cycle;Max_cycle;Signal;HPM_P1;HPM_P2
2024/04/03 00:00:17;;;;;;;3.05;0.35;;;11.10;99.90;;;;;;4040198;29;20230;-94
2024/04/03 00:02:18;;;;;;;6.35;1.15;;;11.20;99.90;;;;;;4024363;29;20170;-93
2024/04/03 00:04:19;;;;;;;0.90;0.17;;;11.20;99.90;;;;;;4024307;29;20478;-93
2024/04/03 00:06:22;;;;;;;3.92;1.20;;;11.20;99.90;;;;;;4039995;29;20181;-94
2024/04/03 00:08:29;;;;;;;2.58;0.52;;;11.30;99.90;;;;;;4024481;29;20653;-94
2024/04/03 00:10:30;;;;;;;3.10;0.57;;;11.20;99.90;;;;;;4024330;29;20202;-95
2024/04/03 00:12:31;;;;;;;4.93;1.25;;;11.00;99.90;;;;;;4039190;29;20174;-94
2024/04/03 00:14:38;;;;;;;1.67;0.70;;;10.90;99.90;;;;;;4023516;29;20780;-94
2024/04/03 00:16:39;;;;;;;2.80;0.57;;;10.80;99.90;;;;;;4039706;29;20589;-94
2024/04/03 00:18:40;;;;;;;4.75;0.65;;;10.90;99.90;;;;;;4039276;29;20248;-94
2024/04/03 00:20:46;;;;;;;5.18;1.25;;;10.80;99.90;;;;;;4039592;29;20702;-94
2024/04/03 00:22:50;;;;;;;4.03;0.82;;;10.80;99.90;;;;;;4039647;29;20185;-94
2024/04/03 00:24:52;;;;;;;3.83;0.85;;;10.80;99.90;;;;;;4024470;29;20178;-93
2024/04/03 00:26:56;;;;;;;3.22;0.60;;;10.80;99.90;;;;;;4039182;29;20185;-93
2024/04/03 00:28:57;;;;;;;14.13;1.38;;;10.70;99.90;;;;;;4023896;29;20166;-94
2024/04/03 00:31:03;;;;;;;1.30;0.28;;;10.70;99.90;;;;;;4038242;29;20293;-94
2024/04/03 00:33:06;;;;;;;8.73;0.65;;;10.70;99.90;;;;;;4023476;29;20226;-93
2024/04/03 00:35:09;;;;;;;3.20;0.73;;;10.80;99.90;;;;;;4038739;29;20637;-94
2024/04/03 00:37:15;;;;;;;7.13;0.70;;;10.70;99.90;;;;;;4023763;29;20233;-94
2024/04/03 00:39:22;;;;;;;1.58;0.45;;;10.70;99.90;;;;;;4038922;29;20788;-93
2024/04/03 00:41:23;;;;;;;4.10;0.55;;;10.70;99.90;;;;;;4038867;29;20198;-95
2024/04/03 00:43:25;;;;;;;3.08;0.60;;;10.80;99.90;;;;;;4038626;29;20200;-93
2024/04/03 00:45:26;;;;;;;3.00;0.82;;;10.70;99.90;;;;;;4038699;29;20256;-93
2024/04/03 00:47:30;;;;;;;1.88;0.40;;;10.70;99.90;;;;;;4038485;29;20553;-94
2024/04/03 00:49:33;;;;;;;1.05;0.35;;;10.60;99.90;;;;;;4038345;29;20170;-95
2024/04/03 00:51:37;;;;;;;1.63;0.30;;;10.60;99.90;;;;;;4038567;29;20208;-94
2024/04/03 00:53:52;;;;;;;1.15;0.70;;;10.70;99.90;;;;;;4023423;29;20213;-94
2024/04/03 00:55:56;;;;;;;1.92;0.40;;;10.70;99.90;;;;;;4037263;29;20197;-93
2024/04/03 00:58:05;;;;;;;1.65;0.30;;;10.60;99.90;;;;;;4053890;29;20217;-95
2024/04/03 01:00:06;;;;;;;4.18;0.73;;;10.70;99.90;;;;;;4038382;29;20188;-93
2024/04/03 01:02:23;;;;;;;1.10;0.52;;;10.70;99.90;;;;;;4053994;29;20175;-93
2024/04/03 01:04:24;;;;;;;3.10;0.57;;;10.70;99.90;;;;;;4038641;29;20181;-94
2024/04/03 01:06:25;;;;;;;3.88;0.40;;;10.70;99.90;;;;;;4022997;29;20194;-95
2024/04/03 01:08:26;;;;;;;2.60;0.40;;;10.70;99.90;;;;;;4038248;29;20677;-93
2024/04/03 01:10:29;;;;;;;4.68;0.65;;;10.90;99.90;;;;;;4038203;29;20277;-94
2024/04/03 01:12:42;;;;;;;2.38;0.60;;;11.00;99.90;;;;;;4023152;29;20182;-94
2024/04/03 01:14:52;;;;;;;7.30;0.82;;;11.00;99.90;;;;;;4024152;29;20209;-93
2024/04/03 01:16:53;;;;;;;1.55;0.40;;;11.00;99.90;;;;;;4023183;29;20182;-94
2024/04/03 01:18:53;;;;;;;1.10;0.50;;;10.90;99.90;;;;;;4038409;29;20206;-93
2024/04/03 01:20:54;;;;;;;2.40;0.35;;;11.00;99.90;;;;;;4038354;29;20212;-93
2024/04/03 01:22:55;;;;;;;1.80;0.50;;;11.00;99.90;;;;;;4038081;29;20173;-94
2024/04/03 01:24:56;;;;;;;3.20;0.40;;;11.10;99.90;;;;;;4022782;29;20246;-94
2024/04/03 01:26:57;;;;;;;0.63;0.38;;;11.30;99.90;;;;;;4037912;29;20204;-93
2024/04/03 01:28:58;;;;;;;1.75;0.40;;;11.30;99.90;;;;;;4038231;29;20178;-93
2024/04/03 01:30:59;;;;;;;1.63;0.70;;;11.30;99.90;;;;;;4038002;29;20201;-94
2024/04/03 01:33:02;;;;;;;2.72;0.38;;;11.30;99.90;;;;;;4022514;29;20324;-94
2024/04/03 01:35:03;;;;;;;2.47;0.50;;;11.30;99.90;;;;;;4037816;29;20177;-93
2024/04/03 01:37:04;;;;;;;0.65;0.40;;;11.40;99.90;;;;;;4053337;29;20177;-95
2024/04/03 01:39:05;;;;;;;5.55;0.70;;;11.40;99.90;;;;;;4038117;29;20246;-94
2024/04/03 01:41:06;;;;;;;0.57;0.50;;;11.40;99.90;;;;;;4037688;29;20221;-93
2024/04/03 01:43:07;;;;;;;5.47;0.70;;;11.50;99.90;;;;;;4037525;29;20192;-93
2024/04/03 01:45:08;;;;;;;1.17;0.35;;;11.50;99.90;;;;;;4038055;29;20182;-93
2024/04/03 01:47:09;;;;;;;0.82;0.35;;;11.50;99.90;;;;;;4053343;29;20562;-94
2024/04/03 01:49:15;;;;;;;3.58;0.50;;;11.40;99.90;;;;;;4037796;29;20186;-94
2024/04/03 01:51:16;;;;;;;5.65;1.70;;;11.60;99.90;;;;;;4022188;29;20243;-93
2024/04/03 01:53:19;;;;;;;0.85;0.57;;;11.60;99.90;;;;;;4069205;29;20236;-94
2024/04/03 01:55:20;;;;;;;3.63;0.50;;;11.60;99.90;;;;;;4022380;29;20186;-95
2024/04/03 01:57:21;;;;;;;2.70;0.30;;;11.60;99.90;;;;;;4037569;29;20214;-94
2024/04/03 01:59:22;;;;;;;4.60;0.57;;;11.50;99.90;;;;;;4022322;29;20274;-94
2024/04/03 02:01:23;;;;;;;3.92;0.50;;;11.70;99.90;;;;;;4037515;29;20205;-94
2024/04/03 02:03:32;;;;;;;8.15;1.20;;;11.50;99.90;;;;;;4037621;29;20198;-94
2024/04/03 02:05:49;;;;;;;1.42;0.50;;;11.60;99.90;;;;;;4037729;29;20697;-94
2024/04/03 02:07:55;;;;;;;4.10;0.60;;;11.60;99.90;;;;;;4022315;29;20213;-94
2024/04/03 02:09:56;;;;;;;2.78;0.63;;;11.50;99.90;;;;;;4022606;29;20178;-94
2024/04/03 02:11:57;;;;;;;1.95;0.82;;;11.60;99.90;;;;;;4037165;29;20224;-94
2024/04/03 02:14:23;;;;;;;2.33;0.90;;;11.40;99.90;;;;;;4068465;29;20223;-93
2024/04/03 02:16:25;;;;;;;2.70;0.40;;;11.10;99.90;;;;;;4037736;29;20201;-94
2024/04/03 02:18:26;;;;;;;3.35;0.40;;;11.00;99.90;;;;;;4037526;29;20229;-95
2024/04/03 02:20:29;;;;;;;1.95;0.65;;;10.90;99.90;;;;;;4037215;29;21935;-95
2024/04/03 02:22:30;;;;;;;4.63;0.88;;;10.80;99.90;;;;;;4021927;29;20182;-94
2024/04/03 02:24:31;;;;;;;1.65;0.52;;;10.90;99.90;;;;;;4021976;29;20173;-94
2024/04/03 02:26:32;;;;;;;5.43;1.85;;;10.90;99.90;;;;;;4037810;29;20181;-95
2024/04/03 02:28:33;;;;;;;1.55;0.93;;;11.00;99.90;;;;;;4021664;29;20178;-94
2024/04/03 02:30:34;;;;;;;2.45;0.70;;;11.10;99.90;;;;;;4053054;29;20208;-94
2024/04/03 02:32:38;;;;;;;12.98;2.05;;;11.20;99.90;;;;;;4021932;29;20289;-94
2024/04/03 02:34:39;;;;;;;6.38;1.13;;;11.10;99.90;;;;;;4037140;29;20213;-95
2024/04/03 02:36:39;;;;;;;5.07;1.63;;;11.00;99.90;;;;;;4021889;29;20241;-94
2024/04/03 02:38:41;;;;;;;0.75;0.43;;;10.90;99.90;;;;;;4037269;29;20181;-94
2024/04/03 02:40:42;;;;;;;1.52;0.65;;;10.90;99.90;;;;;;4022244;29;20277;-94
2024/04/03 02:42:48;;;;;;;11.60;1.55;;;11.00;99.90;;;;;;4037251;29;20188;-95
2024/04/03 02:44:49;;;;;;;5.15;0.70;;;10.90;99.90;;;;;;4037546;29;20704;-93
2024/04/03 02:46:50;;;;;;;1.25;0.40;;;10.90;99.90;;;;;;4037802;29;20177;-94
2024/04/03 02:48:51;;;;;;;1.15;0.32;;;10.90;99.90;;;;;;4022628;29;20261;-93
2024/04/03 02:51:08;;;;;;;3.63;0.68;;;10.70;99.90;;;;;;4037340;29;20254;-94
2024/04/03 02:53:09;;;;;;;1.75;0.38;;;10.70;99.90;;;;;;4022056;29;20237;-96
2024/04/03 02:55:10;;;;;;;1.38;0.68;;;10.60;99.90;;;;;;4036818;29;20216;-94
2024/04/03 02:57:11;;;;;;;2.67;1.02;;;10.70;99.90;;;;;;4021619;29;20174;-93
2024/04/03 02:59:12;;;;;;;15.85;0.90;;;10.80;99.90;;;;;;4037398;29;20196;-94
2024/04/03 03:01:13;;;;;;;0.98;0.40;;;10.80;99.90;;;;;;4036914;29;20190;-95
2024/04/03 03:03:14;;;;;;;5.05;0.70;;;10.90;99.90;;;;;;4021545;29;20202;-94
2024/04/03 03:05:20;;;;;;;3.95;0.80;;;11.00;99.90;;;;;;4021575;29;20673;-94
2024/04/03 03:07:21;;;;;;;2.13;0.75;;;10.90;99.90;;;;;;4036917;29;20185;-94
2024/04/03 03:09:22;;;;;;;2.00;0.50;;;10.80;99.90;;;;;;4036916;29;20574;-94
2024/04/03 03:11:23;;;;;;;2.72;1.00;;;11.00;99.90;;;;;;4068175;29;20605;-94
2024/04/03 03:13:26;;;;;;;4.93;0.73;;;11.00;99.90;;;;;;4037091;29;20289;-94
2024/04/03 03:15:27;;;;;;;2.10;0.50;;;10.90;99.90;;;;;;4021540;29;20190;-94
2024/04/03 03:17:28;;;;;;;0.45;0.32;;;10.70;99.90;;;;;;4021505;29;20251;-94
2024/04/03 03:19:29;;;;;;;5.85;0.70;;;10.80;99.90;;;;;;4021382;29;20790;-94
2024/04/03 03:21:32;;;;;;;2.30;1.00;;;10.80;99.90;;;;;;4021359;29;20197;-94
2024/04/03 03:23:33;;;;;;;1.73;0.40;;;10.80;99.90;;;;;;4052243;29;20181;-94
2024/04/03 03:25:34;;;;;;;5.47;0.60;;;10.80;99.90;;;;;;4036714;29;20266;-94
2024/04/03 03:27:35;;;;;;;7.60;1.25;;;10.70;99.90;;;;;;4037021;29;20191;-93
2024/04/03 03:29:36;;;;;;;1.23;0.70;;;10.60;99.90;;;;;;4037158;29;20173;-94
2024/04/03 03:31:39;;;;;;;0.77;0.25;;;10.80;99.90;;;;;;4021390;29;20630;-93
2024/04/03 03:33:41;;;;;;;4.30;0.45;;;10.80;99.90;;;;;;4036863;29;20613;-93
2024/04/03 03:35:52;;;;;;;5.72;0.47;;;10.90;99.90;;;;;;4021404;29;20614;-93
2024/04/03 03:37:53;;;;;;;0.60;0.55;;;10.80;99.90;;;;;;4036647;29;20652;-94
2024/04/03 03:39:54;;;;;;;4.45;0.95;;;10.90;99.90;;;;;;4036583;29;20180;-94
2024/04/03 03:41:55;;;;;;;7.10;0.75;;;10.90;99.90;;;;;;4067902;29;20588;-94
2024/04/03 03:43:55;;;;;;;0.98;0.43;;;10.80;99.90;;;;;;4037086;29;20182;-94
2024/04/03 03:45:56;;;;;;;4.60;0.70;;;10.90;99.90;;;;;;4021624;29;20261;-94
2024/04/03 03:47:57;;;;;;;0.98;0.32;;;10.90;99.90;;;;;;4036714;29;20541;-95
2024/04/03 03:52:36;;;;;;;0.77;0.52;;;10.70;99.90;;;;;;4052323;29;20185;-94
2024/04/03 03:54:39;;;;;;;0.43;0.22;;;10.60;99.90;;;;;;4036712;29;20225;-93
2024/04/03 03:56:40;;;;;;;1.65;0.20;;;10.50;99.90;;;;;;4036240;29;20174;-94
2024/04/03 03:58:43;;;;;;;3.70;0.50;;;10.50;99.90;;;;;;4021720;29;20178;-95
2024/04/03 04:00:44;;;;;;;1.55;0.45;;;10.40;99.90;;;;;;4036849;29;20236;-95
2024/04/03 04:02:44;;;;;;;1.10;0.40;;;10.40;99.90;;;;;;4021311;29;20182;-93
2024/04/03 04:04:48;;;;;;;0.95;0.30;;;10.40;99.90;;;;;;4036937;29;20638;-94
2024/04/03 04:06:49;;;;;;;1.40;0.65;;;10.30;99.90;;;;;;4021732;29;20291;-94
2024/04/03 04:08:50;;;;;;;15.57;0.68;;;10.30;99.90;;;;;;4037215;29;20173;-93
2024/04/03 04:10:54;;;;;;;1.63;0.57;;;10.40;99.90;;;;;;4021188;29;20561;-94
2024/04/03 04:12:55;;;;;;;3.08;0.45;;;10.40;99.90;;;;;;4036563;29;20190;-92
2024/04/03 04:14:57;;;;;;;0.38;0.22;;;10.30;99.90;;;;;;4036630;29;20756;-93
2024/04/03 04:17:00;;;;;;;2.13;0.60;;;10.30;99.90;;;;;;4036358;29;20237;-95
2024/04/03 04:19:01;;;;;;;0.77;0.50;;;10.30;99.90;;;;;;4036141;29;20261;-94
2024/04/03 04:21:03;;;;;;;1.58;0.82;;;10.20;99.90;;;;;;4020913;29;20661;-94
2024/04/03 04:23:04;;;;;;;0.65;0.38;;;10.20;99.90;;;;;;4051738;29;20173;-94
2024/04/03 04:25:05;;;;;;;0.73;0.22;;;10.20;99.90;;;;;;4036292;29;20192;-93
2024/04/03 04:27:07;;;;;;;0.40;0.30;;;10.30;99.90;;;;;;4020891;29;20170;-93
2024/04/03 04:29:11;;;;;;;1.00;0.20;;;10.20;99.90;;;;;;4036380;29;20569;-94
2024/04/03 04:31:12;;;;;;;0.60;0.28;;;10.20;99.90;;;;;;4038315;29;20704;-94
2024/04/03 04:33:13;;;;;;;4.15;0.50;;;10.20;99.90;;;;;;4039114;29;20209;-93
2024/04/03 04:35:16;;;;;;;4.18;0.63;;;10.20;99.90;;;;;;4023395;29;20182;-94
2024/04/03 04:37:17;;;;;;;1.17;0.40;;;10.20;99.90;;;;;;4054823;29;20169;-93
2024/04/03 04:39:21;;;;;;;0.65;0.20;;;10.20;99.90;;;;;;4023928;29;20182;-94
2024/04/03 04:41:24;;;;;;;9.27;1.33;;;10.20;99.90;;;;;;4023635;29;20622;-94
2024/04/03 04:43:29;;;;;;;0.70;0.40;;;10.20;99.90;;;;;;4023321;29;20577;-93
2024/04/03 04:45:30;;;;;;;1.77;0.30;;;10.20;99.90;;;;;;4038636;29;20242;-92
2024/04/03 04:47:30;;;;;;;0.90;0.28;;;10.10;99.90;;;;;;4023349;29;20737;-94
2024/04/03 04:49:31;;;;;;;1.90;0.52;;;10.20;99.90;;;;;;4023531;29;20234;-94
2024/04/03 04:51:32;;;;;;;2.05;0.50;;;10.20;99.90;;;;;;4038669;29;20182;-94
2024/04/03 04:53:33;;;;;;;0.82;0.40;;;10.20;99.90;;;;;;4038779;29;20961;-94
2024/04/03 04:55:34;;;;;;;3.95;0.40;;;10.10;99.90;;;;;;4038918;29;20249;-93
2024/04/03 04:57:35;;;;;;;0.30;0.30;;;10.20;99.90;;;;;;4038473;29;20189;-94
2024/04/03 04:59:36;;;;;;;1.65;0.43;;;10.10;99.90;;;;;;4039006;29;20173;-93
2024/04/03 05:01:39;;;;;;;0.38;0.20;;;10.20;99.90;;;;;;4038624;29;20665;-94
2024/04/03 05:03:40;;;;;;;0.88;0.47;;;10.20;99.90;;;;;;4038711;29;20701;-94
2024/04/03 05:05:41;;;;;;;0.80;0.38;;;10.20;99.90;;;;;;4023162;29;20182;-94
2024/04/03 05:07:41;;;;;;;3.20;0.77;;;10.30;99.90;;;;;;4053918;29;20188;-95
2024/04/03 05:09:54;;;;;;;4.25;0.73;;;10.30;99.90;;;;;;4038924;29;20699;-94
2024/04/03 05:12:04;;;;;;;0.40;0.40;;;10.20;99.90;;;;;;4024715;29;20202;-94
2024/04/03 05:14:07;;;;;;;0.60;0.30;;;10.30;99.90;;;;;;4038324;29;20232;-94
2024/04/03 05:16:11;;;;;;;1.60;0.65;;;10.30;99.90;;;;;;4039766;29;20204;-94
2024/04/03 05:18:15;;;;;;;0.50;0.10;;;10.40;99.90;;;;;;4023154;29;20285;-94
2024/04/03 05:20:16;;;;;;;3.20;0.65;;;10.30;99.90;;;;;;4038770;29;20177;-94
2024/04/03 05:22:18;;;;;;;0.13;0.13;;;10.40;99.90;;;;;;4039040;29;20174;-94
2024/04/03 05:24:25;;;;;;;1.88;0.35;;;10.30;99.90;;;;;;4069365;29;20176;-94
2024/04/03 05:26:36;;;;;;;0.43;0.13;;;10.40;99.90;;;;;;4039320;29;20178;-94
2024/04/03 05:28:44;;;;;;;0.98;0.47;;;10.40;99.90;;;;;;4023757;29;20185;-95
2024/04/03 05:30:47;;;;;;;2.72;0.75;;;10.30;99.90;;;;;;4038898;29;20587;-95
2024/04/03 05:32:48;;;;;;;0.25;0.22;;;10.40;99.90;;;;;;4023306;29;20951;-93
2024/04/03 05:34:57;;;;;;;0.40;0.30;;;10.40;99.90;;;;;;4039176;29;20577;-94
2024/04/03 05:37:02;;;;;;;0.10;0.10;;;10.30;99.90;;;;;;4054542;29;20176;-93
2024/04/03 05:39:11;;;;;;;2.08;0.82;;;10.20;99.90;;;;;;4039138;29;20188;-95
2024/04/03 05:41:15;;;;;;;2.85;0.60;;;10.30;99.90;;;;;;4023231;29;20202;-94
2024/04/03 05:43:16;;;;;;;3.30;0.70;;;10.40;99.90;;;;;;4039513;29;20788;-94
2024/04/03 05:45:18;;;;;;;1.73;0.60;;;10.40;99.90;;;;;;4023520;29;20186;-93
2024/04/03 05:47:19;;;;;;;1.58;0.30;;;10.40;99.90;;;;;;4038201;29;20185;-94
2024/04/03 05:49:20;;;;;;;5.18;0.82;;;10.40;99.90;;;;;;4022901;29;20174;-93
2024/04/03 05:51:21;;;;;;;1.02;0.40;;;10.30;99.90;;;;;;4022548;29;20202;-94
2024/04/03 05:53:27;;;;;;;0.38;0.25;;;10.30;99.90;;;;;;4038669;29;20206;-95
2024/04/03 05:55:28;;;;;;;1.38;0.45;;;10.30;99.90;;;;;;4054478;29;20181;-94
2024/04/03 05:57:34;;;;;;;2.20;0.00;;;10.30;99.90;;;;;;4029296;29;20187;-93
2024/04/03 05:59:36;;;;;;;0.60;0.30;;;10.30;99.90;;;;;;4042194;29;20177;-94
2024/04/03 06:01:37;;;;;;;2.35;0.50;;;10.30;99.90;;;;;;4037855;29;20201;-93
2024/04/03 06:03:38;;;;;;;2.65;0.60;;;10.30;99.90;;;;;;4038164;29;20287;-94
2024/04/03 06:05:39;;;;;;;0.80;0.20;;;10.40;99.90;;;;;;4053304;29;20196;-93
2024/04/03 06:07:42;;;;;;;1.25;0.40;;;10.30;99.90;;;;;;4038231;29;20173;-93
2024/04/03 06:09:53;;;;;;;;;;;;;;;;;;;;;
2024/04/03 06:11:54;;;;;;;2.72;0.43;;;10.30;99.90;;;;;;4053393;29;20201;-94
2024/04/03 06:14:12;;;;;;;2.25;0.60;;;10.40;99.90;;;;;;4037425;29;20582;-95
2024/04/03 06:16:13;;;;;;;0.75;0.35;;;10.30;99.90;;;;;;4022402;29;20193;-93
2024/04/03 06:18:16;;;;;;;1.17;0.40;;;10.30;99.90;;;;;;4038341;29;20294;-94
2024/04/03 06:20:17;;;;;;;2.95;0.32;;;10.30;99.90;;;;;;4053297;29;20549;-93
2024/04/03 06:22:18;;;;;;;0.90;0.40;;;10.40;99.90;;;;;;4022710;29;20262;-93
2024/04/03 06:24:23;;;;;;;1.70;0.50;;;10.30;99.90;;;;;;4022103;29;20194;-94
2024/04/03 06:26:24;;;;;;;0.47;0.25;;;10.30;99.90;;;;;;4022554;29;20246;-94
2024/04/03 06:28:30;;;;;;;2.10;0.57;;;10.40;99.90;;;;;;4037523;29;20182;-93
2024/04/03 06:30:31;;;;;;;1.67;0.30;;;10.40;99.90;;;;;;4022288;29;20247;-95
2024/04/03 06:32:45;;;;;;;0.20;0.20;;;10.50;99.90;;;;;;4038124;29;20617;-94
2024/04/03 06:34:52;;;;;;;0.30;0.20;;;10.60;99.90;;;;;;4021752;29;20206;-95
2024/04/03 06:37:03;;;;;;;1.77;0.60;;;10.60;99.90;;;;;;4022358;29;20181;-95
2024/04/03 06:39:04;;;;;;;1.10;0.50;;;10.50;99.90;;;;;;4022338;29;20186;-94
2024/04/03 06:41:05;;;;;;;0.68;0.20;;;10.50;99.90;;;;;;4021781;29;20233;-94
2024/04/03 06:43:06;;;;;;;1.10;0.22;;;10.50;99.90;;;;;;4052418;29;20232;-95
2024/04/03 06:45:10;;;;;;;1.10;0.38;;;10.60;99.90;;;;;;4037212;29;20178;-94
2024/04/03 06:47:16;;;;;;;0.38;0.30;;;10.60;99.90;;;;;;4021962;29;20729;-94
2024/04/03 06:49:19;;;;;;;2.65;0.30;;;10.60;99.90;;;;;;4022122;29;20266;-95
2024/04/03 06:51:23;;;;;;;0.30;0.30;;;10.60;99.90;;;;;;4037537;29;20197;-93
2024/04/03 06:53:24;;;;;;;1.25;0.38;;;10.70;99.90;;;;;;4036629;29;20213;-95
2024/04/03 06:55:25;;;;;;;3.42;0.50;;;10.90;99.90;;;;;;4021462;29;20182;-94
2024/04/03 06:57:26;;;;;;;2.92;0.40;;;11.00;99.90;;;;;;4052582;29;20236;-94
2024/04/03 06:59:30;;;;;;;0.38;0.10;;;11.30;99.90;;;;;;4022070;29;20269;-95
2024/04/03 07:01:31;;;;;;;1.77;0.80;;;11.40;99.90;;;;;;4037389;29;20200;-94
2024/04/03 07:03:33;;;;;;;0.68;0.30;;;11.50;99.90;;;;;;4037200;29;20714;-94
2024/04/03 07:05:38;;;;;;;0.32;0.20;;;11.50;99.90;;;;;;4052634;29;20228;-95
2024/04/03 07:07:40;;;;;;;1.55;0.65;;;11.40;99.90;;;;;;4037345;29;20169;-93
2024/04/03 07:09:42;;;;;;;5.43;0.60;;;11.40;99.90;;;;;;4037290;29;20253;-93
2024/04/03 07:11:43;;;;;;;2.05;0.52;;;11.20;99.90;;;;;;4036897;29;20254;-94
2024/04/03 07:13:47;;;;;;;0.68;0.30;;;11.30;99.90;;;;;;4021935;29;20297;-94
2024/04/03 07:15:48;;;;;;;0.73;0.32;;;11.10;99.90;;;;;;4037018;29;20184;-93
2024/04/03 07:17:52;;;;;;;0.65;0.50;;;11.10;99.90;;;;;;4021975;29;20211;-93
2024/04/03 07:19:57;;;;;;;2.45;0.32;;;11.20;99.90;;;;;;4036619;29;20182;-94
2024/04/03 07:22:07;;;;;;;0.75;0.30;;;11.20;99.90;;;;;;4021725;29;20201;-93
2024/04/03 07:24:14;;;;;;;1.02;0.30;;;11.20;99.90;;;;;;4021238;29;20205;-93
2024/04/03 07:26:26;;;;;;;2.78;0.47;;;11.20;99.90;;;;;;4022256;29;20212;-93
2024/04/03 07:28:30;;;;;;;1.30;0.40;;;11.30;99.90;;;;;;4037176;29;20249;-93
2024/04/03 07:30:33;;;;;;;3.38;0.45;;;11.20;99.90;;;;;;4021175;29;20717;-95
2024/04/03 07:32:36;;;;;;;1.08;0.40;;;11.30;99.90;;;;;;4036757;29;20560;-94
2024/04/03 07:34:40;;;;;;;0.77;0.22;;;11.40;99.90;;;;;;4021339;29;20221;-93
2024/04/03 07:36:43;;;;;;;2.00;0.22;;;11.40;99.90;;;;;;4021318;29;20178;-94
2024/04/03 07:38:53;;;;;;;4.10;0.30;;;11.20;99.90;;;;;;4036575;29;20209;-94
2024/04/03 07:40:58;;;;;;;0.50;0.20;;;11.20;99.90;;;;;;4021212;29;20669;-95
2024/04/03 07:42:59;;;;;;;0.98;0.20;;;11.20;99.90;;;;;;4037230;29;20280;-94
2024/04/03 07:45:00;;;;;;;4.28;0.30;;;11.30;99.90;;;;;;4037069;29;20176;-94
2024/04/03 07:47:01;;;;;;;0.40;0.30;;;11.30;99.90;;;;;;4046638;29;20216;-94
2024/04/03 07:49:01;;;;;;;0.52;0.30;;;11.30;99.90;;;;;;4051496;29;20180;-93
2024/04/03 07:51:03;;;;;;;0.35;0.30;;;11.20;99.90;;;;;;4052690;29;20201;-94
2024/04/03 07:53:04;;;;;;;0.73;0.22;;;11.20;99.90;;;;;;4036084;29;20610;-94
2024/04/03 07:55:06;;;;;;;1.38;0.43;;;11.40;99.90;;;;;;4051677;29;20196;-94
2024/04/03 07:57:07;;;;;;;0.73;0.28;;;11.30;99.90;;;;;;4036389;29;20174;-94
2024/04/03 07:59:08;;;;;;;0.20;0.20;;;11.20;99.90;;;;;;4036412;29;20581;-93
2024/04/03 08:01:09;;;;;;;3.25;0.40;;;11.20;99.90;;;;;;4051824;29;20189;-95
2024/04/03 08:03:11;;;;;;;0.30;0.30;;;11.10;99.90;;;;;;4052039;29;20283;-94
2024/04/03 08:05:13;;;;;;;0.98;0.45;;;11.10;99.90;;;;;;4054122;29;20169;-93
2024/04/03 08:07:14;;;;;;;0.55;0.20;;;11.20;99.90;;;;;;4055001;29;20195;-94
2024/04/03 08:09:27;;;;;;;4.88;0.40;;;11.10;99.90;;;;;;4039718;29;20213;-94
2024/04/03 08:11:32;;;;;;;0.85;0.30;;;11.10;99.90;;;;;;4039740;29;20232;-94
2024/04/03 08:13:33;;;;;;;2.13;0.30;;;11.10;99.90;;;;;;4039301;29;20213;-94
2024/04/03 08:15:34;;;;;;;0.50;0.20;;;11.10;99.90;;;;;;4039229;29;20185;-94
2024/04/03 08:17:35;;;;;;;0.30;0.20;;;11.20;99.90;;;;;;4039242;29;20182;-95
2024/04/03 08:19:36;;;;;;;0.38;0.38;;;11.20;99.90;;;;;;4054472;29;20173;-94
2024/04/03 08:21:36;;;;;;;0.90;0.45;;;11.20;99.90;;;;;;4039090;29;20669;-94
2024/04/03 08:23:40;;;;;;;1.08;0.30;;;11.10;99.90;;;;;;4041393;29;20182;-95
2024/04/03 08:25:41;;;;;;;2.13;0.40;;;11.00;99.90;;;;;;4069925;29;20246;-94
2024/04/03 08:27:42;;;;;;;0.30;0.20;;;11.10;99.90;;;;;;4039232;29;20170;-96
2024/04/03 08:29:49;;;;;;;0.20;0.20;;;11.10;99.90;;;;;;4055073;29;20217;-94
2024/04/03 08:31:51;;;;;;;0.30;0.20;;;11.10;99.90;;;;;;4038767;29;20194;-94
2024/04/03 08:33:52;;;;;;;0.60;0.38;;;11.20;99.90;;;;;;4039023;29;20217;-96
2024/04/03 08:36:00;;;;;;;3.67;0.75;;;11.20;99.90;;;;;;4038906;29;20613;-94
2024/04/03 08:38:01;;;;;;;1.95;0.45;;;11.30;99.90;;;;;;4039141;29;20264;-94
2024/04/03 08:40:07;;;;;;;13.70;4.43;;;11.40;99.90;;;;;;4054399;29;20180;-95
2024/04/03 08:42:09;;;;;;;1.75;0.32;;;11.40;99.90;;;;;;4039036;29;20265;-94
2024/04/03 08:44:10;;;;;;;0.40;0.15;;;11.20;99.90;;;;;;4039153;29;20186;-94
2024/04/03 08:46:11;;;;;;;0.90;0.30;;;11.10;99.90;;;;;;4040030;29;20261;-94
2024/04/03 08:48:13;;;;;;;0.85;0.10;;;11.10;99.90;;;;;;4038933;29;20533;-95
2024/04/03 08:50:14;;;;;;;0.30;0.20;;;11.20;99.90;;;;;;4054092;29;20680;-94
2024/04/03 08:52:18;;;;;;;0.47;0.35;;;11.20;99.90;;;;;;4038469;29;20545;-93
2024/04/03 08:54:21;;;;;;;1.58;0.40;;;11.20;99.90;;;;;;4038883;29;20280;-94
2024/04/03 08:56:22;;;;;;;4.65;0.47;;;11.10;99.90;;;;;;4054160;29;20656;-95
2024/04/03 08:58:25;;;;;;;0.30;0.20;;;11.20;99.90;;;;;;4038514;29;20177;-95
2024/04/03 09:00:26;;;;;;;0.57;0.20;;;11.20;99.90;;;;;;4038946;29;20226;-94
2024/04/03 09:02:27;;;;;;;0.15;0.15;;;11.20;99.90;;;;;;4038481;29;20189;-94
2024/04/03 09:04:29;;;;;;;0.70;0.32;;;11.10;99.90;;;;;;4038883;29;20272;-94
2024/04/03 09:06:39;;;;;;;2.47;1.15;;;11.10;99.90;;;;;;4038574;29;20182;-93
2024/04/03 09:08:42;;;;;;;0.17;0.17;;;11.10;99.90;;;;;;4038963;29;20703;-95
2024/04/03 09:10:59;;;;;;;1.75;0.40;;;11.10;99.90;;;;;;4040888;29;20205;-95
2024/04/03 09:13:04;;;;;;;0.00;0.00;;;11.20;99.90;;;;;;4038914;29;20228;-95
2024/04/03 09:15:06;;;;;;;0.70;0.10;;;11.10;99.90;;;;;;4039355;29;20174;-94
2024/04/03 09:17:07;;;;;;;0.82;0.30;;;11.10;99.90;;;;;;4038215;29;20185;-94
2024/04/03 09:19:10;;;;;;;0.28;0.20;;;11.20;99.90;;;;;;4038250;29;20281;-95
2024/04/03 09:21:18;;;;;;;0.10;0.10;;;11.20;99.90;;;;;;4038231;29;20245;-94
2024/04/03 09:23:19;;;;;;;0.30;0.10;;;11.30;99.90;;;;;;4038408;29;20173;-93
2024/04/03 09:25:21;;;;;;;0.45;0.20;;;11.30;99.90;;;;;;4054798;29;20628;-94
2024/04/03 09:27:22;;;;;;;0.30;0.17;;;11.30;99.90;;;;;;4038666;29;20169;-94
2024/04/03 09:29:23;;;;;;;0.00;0.00;;;11.30;99.90;;;;;;4038933;29;20708;-95
2024/04/03 09:31:24;;;;;;;0.93;0.47;;;11.40;99.90;;;;;;4038270;29;20208;-93
2024/04/03 09:33:28;;;;;;;2.08;0.20;;;11.50;99.90;;;;;;4037739;29;20209;-94
2024/04/03 09:35:29;;;;;;;0.65;0.43;;;11.50;99.90;;;;;;4053775;29;20245;-94
2024/04/03 09:37:32;;;;;;;0.30;0.13;;;11.50;99.90;;;;;;4037561;29;20184;-95
2024/04/03 09:39:33;;;;;;;0.40;0.20;;;11.60;99.90;;;;;;4038136;29;20180;-94
2024/04/03 09:41:33;;;;;;;0.30;0.20;;;11.60;99.90;;;;;;4038395;29;20292;-94
2024/04/03 09:43:38;;;;;;;0.30;0.30;;;11.60;99.90;;;;;;4055134;29;20165;-95
2024/04/03 09:45:39;;;;;;;0.35;0.30;;;11.60;99.90;;;;;;4037833;29;20181;-94
2024/04/03 09:47:44;;;;;;;0.30;0.20;;;11.60;99.90;;;;;;4038187;29;20222;-94
2024/04/03 09:49:50;;;;;;;0.25;0.20;;;11.50;99.90;;;;;;4053086;29;20193;-93
2024/04/03 09:51:53;;;;;;;0.47;0.20;;;11.60;99.90;;;;;;4052967;29;20193;-95
2024/04/03 09:53:54;;;;;;;0.20;0.20;;;11.60;99.90;;;;;;4053399;29;20221;-94
2024/04/03 09:55:55;;;;;;;0.70;0.20;;;11.50;99.90;;;;;;4037860;29;20687;-94
2024/04/03 09:58:08;;;;;;;0.45;0.38;;;11.60;99.90;;;;;;4056291;29;20241;-94
2024/04/03 10:00:13;;;;;;;0.32;0.30;;;11.60;99.90;;;;;;4037851;29;20186;-94
2024/04/03 10:02:14;;;;;;;0.63;0.38;;;11.50;99.90;;;;;;4037390;29;20201;-93
2024/04/03 10:04:15;;;;;;;0.52;0.40;;;11.50;99.90;;;;;;4037636;29;20267;-93
2024/04/03 10:06:16;;;;;;;0.22;0.22;;;11.60;99.90;;;;;;4038263;29;20185;-95
2024/04/03 10:08:18;;;;;;;0.30;0.20;;;11.60;99.90;;;;;;4053334;29;20648;-95
2024/04/03 10:10:19;;;;;;;1.35;0.43;;;11.70;99.90;;;;;;4037636;29;20188;-94
2024/04/03 10:12:22;;;;;;;0.65;0.47;;;11.90;99.90;;;;;;4038334;29;20178;-93
2024/04/03 10:14:32;;;;;;;0.70;0.50;;;11.90;99.90;;;;;;4038562;29;20217;-94
2024/04/03 10:16:33;;;;;;;3.25;0.75;;;12.00;99.90;;;;;;4053015;29;20173;-94
2024/04/03 10:18:36;;;;;;;0.43;0.40;;;12.20;99.90;;;;;;4037361;29;20192;-95
2024/04/03 10:20:38;;;;;;;0.43;0.40;;;12.60;99.90;;;;;;4055036;29;20300;-94
2024/04/03 10:22:41;;;;;;;0.45;0.30;;;12.90;99.90;;;;;;4038550;29;20184;-93
2024/04/03 10:24:43;;;;;;;0.30;0.20;;;12.90;99.90;;;;;;4041016;29;20165;-94
2024/04/03 10:26:46;;;;;;;1.90;0.75;;;13.00;99.90;;;;;;4053143;29;20180;-94
2024/04/03 10:28:47;;;;;;;0.82;0.30;;;13.30;99.90;;;;;;4052591;29;20179;-94
2024/04/03 10:30:55;;;;;;;0.13;0.13;;;13.20;99.90;;;;;;4053813;29;20224;-95
2024/04/03 10:32:58;;;;;;;0.50;0.30;;;13.00;99.90;;;;;;4037080;29;20747;-94
2024/04/03 10:34:58;;;;;;;1.55;0.63;;;13.00;99.90;;;;;;4038328;29;20300;-94
2024/04/03 10:36:59;;;;;;;0.70;0.38;;;13.00;99.90;;;;;;4039671;29;20202;-95
2024/04/03 10:39:01;;;;;;;0.35;0.22;;;13.00;99.90;;;;;;4036636;29;20214;-94
2024/04/03 10:41:05;;;;;;;1.17;0.63;;;12.80;99.90;;;;;;4036780;29;20806;-95
2024/04/03 10:43:06;;;;;;;0.65;0.45;;;12.70;99.90;;;;;;4037086;29;20213;-94